createdAt,value
2023-02-03T00:00:58.105Z,73.16
2023-02-03T00:03:47.121Z,72.82
2023-02-03T00:06:37.144Z,72.70
2023-02-03T00:09:20.055Z,72.92
2023-02-03T00:12:09.171Z,73.44
2023-02-03T00:14:58.057Z,73.25
2023-02-03T00:17:47.116Z,73.64
2023-02-03T00:20:29.529Z,72.81
2023-02-03T00:23:24.104Z,72.94
2023-02-03T00:26:13.767Z,73.33
2023-02-03T00:29:03.225Z,73.55
2023-02-03T00:31:51.501Z,73.95
2023-02-03T00:34:38.096Z,74.00
2023-02-03T00:37:26.485Z,73.57
2023-02-03T00:40:10.178Z,73.84
2023-02-03T00:42:58.447Z,73.70
2023-02-03T00:45:41.244Z,73.86
2023-02-03T00:48:29.465Z,73.47
2023-02-03T00:51:12.124Z,73.75
2023-02-03T00:53:54.457Z,72.96
2023-02-03T00:56:45.114Z,72.72
2023-02-03T00:59:27.399Z,72.94
2023-02-03T01:02:16.264Z,72.72
2023-02-03T01:05:07.429Z,72.60
2023-02-03T01:07:51.229Z,72.04
2023-02-03T01:10:40.463Z,72.84
2023-02-03T01:13:23.237Z,73.04
2023-02-03T01:16:14.458Z,73.65
2023-02-03T01:18:57.190Z,73.08
2023-02-03T01:21:47.881Z,73.77
2023-02-03T01:24:31.112Z,73.52
2023-02-03T01:27:13.496Z,72.71
2023-02-03T01:30:02.141Z,72.72
2023-02-03T01:32:44.467Z,72.62
2023-02-03T01:35:33.158Z,72.73
2023-02-03T01:38:22.375Z,72.75
2023-02-03T01:41:05.078Z,73.68
2023-02-03T01:43:57.501Z,73.58
2023-02-03T01:47:03.123Z,74.09
2023-02-03T01:50:01.121Z,73.93
2023-02-03T01:52:44.402Z,74.07
2023-02-03T01:55:42.104Z,74.57
2023-02-03T01:58:41.401Z,74.66
2023-02-03T02:01:30.175Z,73.82
2023-02-03T02:04:13.469Z,74.59
2023-02-03T02:07:07.084Z,75.13
2023-02-03T02:09:50.344Z,74.65
2023-02-03T02:12:39.101Z,74.94
2023-02-03T02:15:22.427Z,74.91
2023-02-03T02:18:30.105Z,75.27
2023-02-03T02:21:31.100Z,75.56
2023-02-03T02:24:23.111Z,75.14
2023-02-03T02:27:24.138Z,74.94
2023-02-03T02:30:56.265Z,73.80
2023-02-03T02:34:21.458Z,73.87
2023-02-03T02:37:17.105Z,73.99
2023-02-03T02:40:19.140Z,73.48
2023-02-03T02:43:18.379Z,74.03
2023-02-03T02:46:42.158Z,73.65
2023-02-03T02:49:42.354Z,74.13
2023-02-03T02:52:34.233Z,73.60
2023-02-03T02:55:29.412Z,73.79
2023-02-03T02:58:25.160Z,73.67
2023-02-03T03:01:07.420Z,73.17
2023-02-03T03:03:58.100Z,73.18
2023-02-03T03:06:58.070Z,72.12
2023-02-03T03:09:50.348Z,70.64
2023-02-03T03:12:45.072Z,69.80
2023-02-03T03:15:38.998Z,68.13
2023-02-03T03:18:28.101Z,67.19
2023-02-03T03:21:19.361Z,65.48
2023-02-03T03:24:05.126Z,62.96
2023-02-03T03:27:24.098Z,59.95
2023-02-03T03:30:19.455Z,58.21
2023-02-03T03:33:02.144Z,56.95
2023-02-03T03:36:04.758Z,54.69
2023-02-03T03:39:08.138Z,54.52
2023-02-03T03:42:10.457Z,54.10
2023-02-03T03:45:03.103Z,51.14
2023-02-03T03:47:55.163Z,51.64
2023-02-03T03:50:53.114Z,52.56
2023-02-03T03:53:38.565Z,51.35
2023-02-03T03:56:34.083Z,51.25
2023-02-03T03:59:28.345Z,50.39
2023-02-03T04:02:12.218Z,49.86
2023-02-03T04:04:55.641Z,48.01
2023-02-03T04:07:58.086Z,46.86
2023-02-03T04:10:42.867Z,45.62
2023-02-03T04:13:32.110Z,47.37
2023-02-03T04:16:21.536Z,47.83
2023-02-03T04:19:04.636Z,49.27
2023-02-03T04:21:54.135Z,50.30
2023-02-03T04:24:36.391Z,48.61
2023-02-03T04:27:25.200Z,47.68
2023-02-03T04:30:14.418Z,46.69
2023-02-03T04:32:57.076Z,46.33
2023-02-03T04:35:46.083Z,46.27
2023-02-03T04:38:28.408Z,46.70
2023-02-03T04:41:17.107Z,46.97
2023-02-03T04:43:59.511Z,46.42
2023-02-03T04:46:48.114Z,45.55
2023-02-03T04:49:31.422Z,44.59
2023-02-03T04:52:21.105Z,45.03
2023-02-03T04:55:12.119Z,43.85
2023-02-03T04:58:08.354Z,43.54
2023-02-03T05:00:50.145Z,42.38
2023-02-03T05:03:38.490Z,41.34
2023-02-03T05:06:21.149Z,43.26
2023-02-03T05:09:10.378Z,42.27
2023-02-03T05:11:52.058Z,41.56
2023-02-03T05:14:34.343Z,41.28
2023-02-03T05:17:23.154Z,41.25
2023-02-03T05:20:12.368Z,41.08
2023-02-03T05:22:55.065Z,39.73
2023-02-03T05:25:44.099Z,39.48
2023-02-03T05:28:26.374Z,39.23
2023-02-03T05:31:15.175Z,40.01
2023-02-03T05:33:57.359Z,38.50
2023-02-03T05:36:46.380Z,39.24
2023-02-03T05:39:28.535Z,38.38
2023-02-03T05:42:17.059Z,38.57
2023-02-03T05:44:59.526Z,36.55
2023-02-03T05:47:48.113Z,36.67
2023-02-03T05:50:35.303Z,37.64
2023-02-03T05:53:27.176Z,37.78
2023-02-03T05:56:09.547Z,37.09
2023-02-03T05:59:01.088Z,34.98
2023-02-03T06:01:50.011Z,34.42
2023-02-03T06:04:39.108Z,35.39
2023-02-03T06:07:28.081Z,32.00
2023-02-03T06:10:17.985Z,33.69
2023-02-03T06:13:07.111Z,33.91
2023-02-03T06:15:56.447Z,33.84
2023-02-03T06:18:39.071Z,30.89
2023-02-03T06:21:35.116Z,31.04
2023-02-03T06:24:17.295Z,33.79
2023-02-03T06:27:06.168Z,31.78
2023-02-03T06:29:48.292Z,33.14
2023-02-03T06:32:37.182Z,29.41
2023-02-03T06:35:20.142Z,31.19
2023-02-03T06:38:09.050Z,32.18
2023-02-03T06:40:51.712Z,36.90
2023-02-03T06:43:41.097Z,34.50
2023-02-03T06:46:31.245Z,37.74
2023-02-03T06:49:13.144Z,34.96
2023-02-03T06:52:01.370Z,36.65
2023-02-03T06:54:43.104Z,29.68
2023-02-03T06:57:31.384Z,39.28
2023-02-03T07:00:15.597Z,41.04
2023-02-03T07:03:00.843Z,38.90
2023-02-03T07:05:50.165Z,37.29
2023-02-03T07:08:39.324Z,36.63
2023-02-03T07:11:21.172Z,30.22
2023-02-03T07:14:10.362Z,30.86
2023-02-03T07:16:53.073Z,33.49
2023-02-03T07:19:42.059Z,34.31
2023-02-03T07:22:24.349Z,31.63
2023-02-03T07:25:13.053Z,37.80
2023-02-03T07:27:55.449Z,37.28
2023-02-03T07:30:44.122Z,32.15
2023-02-03T07:33:26.525Z,35.75
2023-02-03T07:36:16.050Z,34.97
2023-02-03T07:38:58.575Z,31.02
2023-02-03T07:41:48.078Z,33.60
2023-02-03T07:44:31.429Z,33.83
2023-02-03T07:47:20.355Z,29.40
2023-02-03T07:50:02.530Z,29.28
2023-02-03T07:52:51.088Z,33.51
2023-02-03T07:55:33.788Z,34.02
2023-02-03T07:58:25.052Z,36.18
2023-02-03T08:01:07.323Z,39.69
2023-02-03T08:03:56.164Z,37.62
2023-02-03T08:06:38.518Z,36.61
2023-02-03T08:09:27.031Z,34.74
2023-02-03T08:12:16.095Z,38.25
2023-02-03T08:14:58.349Z,34.00
2023-02-03T08:17:50.116Z,35.95
2023-02-03T08:20:39.528Z,37.82
2023-02-03T08:23:21.043Z,36.35
2023-02-03T08:26:10.550Z,33.00
2023-02-03T08:29:06.035Z,31.80
2023-02-03T08:31:55.473Z,33.21
2023-02-03T08:34:56.273Z,30.10
2023-02-03T08:37:38.575Z,30.63
2023-02-03T08:40:28.273Z,30.56
2023-02-03T08:43:10.387Z,31.02
2023-02-03T08:46:00.205Z,34.18
2023-02-03T08:48:42.553Z,36.19
2023-02-03T08:51:32.117Z,36.16
2023-02-03T08:54:14.505Z,34.73
2023-02-03T08:57:03.356Z,33.65
2023-02-03T08:59:50.670Z,32.12
2023-02-03T09:02:39.130Z,32.28
2023-02-03T09:05:21.514Z,34.83
2023-02-03T09:08:10.174Z,35.32
2023-02-03T09:10:52.492Z,32.63
2023-02-03T09:13:42.113Z,31.40
2023-02-03T09:16:27.701Z,33.65
2023-02-03T09:19:17.045Z,31.23
2023-02-03T09:21:59.532Z,31.33
2023-02-03T09:24:48.101Z,32.28
2023-02-03T09:27:30.459Z,33.20
2023-02-03T09:30:20.157Z,31.37
2023-02-03T09:33:03.397Z,32.77
2023-02-03T09:36:01.025Z,31.74
2023-02-03T09:38:43.470Z,30.92
2023-02-03T09:41:52.245Z,34.69
2023-02-03T09:45:01.343Z,30.41
2023-02-03T09:47:53.079Z,31.44
2023-02-03T09:50:40.351Z,34.86
2023-02-03T09:53:39.043Z,32.62
2023-02-03T09:56:37.394Z,31.50
2023-02-03T09:59:27.095Z,34.14
2023-02-03T10:02:34.164Z,34.28
2023-02-03T10:05:32.001Z,34.87
2023-02-03T10:08:32.674Z,36.20
2023-02-03T10:11:45.072Z,34.56
2023-02-03T10:14:27.450Z,35.48
2023-02-03T10:17:38.092Z,36.02
2023-02-03T10:20:44.013Z,36.56
2023-02-03T10:23:30.476Z,38.65
2023-02-03T10:26:35.014Z,37.80
2023-02-03T10:29:45.954Z,38.34
2023-02-03T10:32:36.174Z,40.14
2023-02-03T10:35:23.404Z,40.74
2023-02-03T10:38:21.099Z,40.33
2023-02-03T10:41:10.190Z,39.41
2023-02-03T10:43:56.031Z,40.75
2023-02-03T10:46:51.048Z,40.87
2023-02-03T10:49:41.586Z,41.43
2023-02-03T10:53:00.141Z,42.22
2023-02-03T10:55:42.466Z,42.11
2023-02-03T10:58:41.996Z,42.30
2023-02-03T11:01:35.213Z,42.31
2023-02-03T11:04:39.493Z,42.24
2023-02-03T11:07:38.115Z,43.11
2023-02-03T11:10:36.828Z,43.15
2023-02-03T11:13:27.116Z,43.16
2023-02-03T11:16:29.463Z,42.96
2023-02-03T11:19:25.066Z,43.04
2023-02-03T11:22:14.011Z,42.70
2023-02-03T11:25:03.431Z,42.87
2023-02-03T11:27:46.381Z,42.67
2023-02-03T11:30:36.460Z,42.87
2023-02-03T11:33:27.014Z,42.85
2023-02-03T11:36:19.691Z,44.25
2023-02-03T11:39:37.073Z,44.34
2023-02-03T11:42:27.856Z,44.30
2023-02-03T11:45:51.013Z,44.63
2023-02-03T11:49:04.166Z,44.35
2023-02-03T11:52:17.120Z,46.77
2023-02-03T11:55:22.915Z,49.65
2023-02-03T11:58:43.068Z,47.12
2023-02-03T12:02:08.362Z,50.17
2023-02-03T12:05:12.100Z,47.79
2023-02-03T12:08:13.379Z,46.45
2023-02-03T12:11:14.158Z,47.70
2023-02-03T12:14:30.047Z,46.79
2023-02-03T12:18:00.071Z,46.80
2023-02-03T12:21:27.517Z,49.09
2023-02-03T12:24:32.114Z,49.51
2023-02-03T12:27:43.955Z,50.50
2023-02-03T12:30:54.047Z,49.15
2023-02-03T12:33:57.371Z,50.60
2023-02-03T12:36:49.010Z,50.04
2023-02-03T12:39:40.446Z,51.00
2023-02-03T12:42:36.328Z,49.96
2023-02-03T12:45:38.017Z,50.35
2023-02-03T12:48:26.419Z,51.32
2023-02-03T12:51:24.089Z,50.47
2023-02-03T12:54:29.439Z,52.51
2023-02-03T12:57:24.019Z,51.39
2023-02-03T13:00:27.964Z,51.60
2023-02-03T13:03:38.130Z,51.65
2023-02-03T13:06:47.464Z,51.62
2023-02-03T13:09:57.096Z,52.55
2023-02-03T13:12:42.223Z,51.68
2023-02-03T13:15:48.034Z,53.13
2023-02-03T13:18:56.545Z,53.23
2023-02-03T13:21:45.124Z,53.39
2023-02-03T13:24:32.522Z,53.13
2023-02-03T13:27:58.188Z,53.10
2023-02-03T13:31:06.010Z,52.77
2023-02-03T13:34:27.100Z,53.28
2023-02-03T13:37:44.492Z,54.17
2023-02-03T13:41:04.544Z,54.97
2023-02-03T13:43:54.738Z,53.29
2023-02-03T13:46:44.971Z,53.93
2023-02-03T13:49:35.444Z,51.82
2023-02-03T13:52:46.988Z,51.66
2023-02-03T13:55:45.105Z,52.08
2023-02-03T13:58:33.825Z,53.05
2023-02-03T14:01:45.046Z,52.59
2023-02-03T14:04:36.804Z,52.44
2023-02-03T14:07:48.057Z,52.40
2023-02-03T14:10:37.415Z,52.23
2023-02-03T14:13:37.175Z,52.84
2023-02-03T14:16:33.438Z,53.31
2023-02-03T14:19:40.044Z,54.92
2023-02-03T14:22:29.120Z,54.70
2023-02-03T14:25:15.505Z,54.36
2023-02-03T14:28:14.098Z,55.30
2023-02-03T14:31:38.115Z,55.56
2023-02-03T14:34:36.032Z,56.09
2023-02-03T14:37:22.054Z,56.23
2023-02-03T14:40:24.866Z,56.12
2023-02-03T14:43:22.514Z,55.08
2023-02-03T14:46:52.179Z,55.87
2023-02-03T14:49:47.048Z,56.80
2023-02-03T14:52:53.618Z,55.77
2023-02-03T14:56:06.985Z,56.69
2023-02-03T14:59:04.142Z,57.16
2023-02-03T15:01:53.116Z,56.30
2023-02-03T15:04:42.109Z,57.24
2023-02-03T15:08:04.434Z,58.00
2023-02-03T15:10:53.968Z,57.91
2023-02-03T15:13:40.321Z,58.30
2023-02-03T15:16:32.095Z,56.64
2023-02-03T15:19:25.633Z,58.05
2023-02-03T15:22:33.976Z,58.81
2023-02-03T15:25:29.565Z,58.86
2023-02-03T15:28:28.098Z,59.06
2023-02-03T15:31:40.372Z,58.83
2023-02-03T15:34:51.093Z,59.64
2023-02-03T15:37:48.139Z,60.50
2023-02-03T15:40:35.448Z,60.61
2023-02-03T15:43:45.329Z,60.69
2023-02-03T15:46:48.070Z,62.19
2023-02-03T15:49:47.102Z,61.33
2023-02-03T15:52:33.371Z,61.99
2023-02-03T15:55:41.067Z,62.80
2023-02-03T15:58:32.417Z,60.94
2023-02-03T16:01:23.060Z,62.24
2023-02-03T16:04:08.142Z,61.28
2023-02-03T16:07:00.158Z,61.16
2023-02-03T16:09:48.432Z,59.69
2023-02-03T16:12:40.146Z,62.28
2023-02-03T16:15:31.624Z,61.65
2023-02-03T16:18:26.097Z,62.25
2023-02-03T16:21:08.507Z,62.71
2023-02-03T16:24:00.093Z,61.94
2023-02-03T16:26:43.470Z,62.90
2023-02-03T16:29:56.064Z,62.78
2023-02-03T16:33:04.006Z,62.22
2023-02-03T16:36:05.085Z,61.93
2023-02-03T16:39:10.173Z,62.58
2023-02-03T16:42:18.026Z,62.21
2023-02-03T16:45:25.893Z,63.46
2023-02-03T16:48:27.476Z,63.44
2023-02-03T16:51:23.367Z,63.39
2023-02-03T16:54:05.014Z,63.01
2023-02-03T16:56:55.535Z,62.37
2023-02-03T16:59:58.977Z,63.03
2023-02-03T17:02:50.125Z,63.45
2023-02-03T17:05:33.203Z,63.74
2023-02-03T17:08:23.515Z,63.70
2023-02-03T17:11:12.186Z,62.59
2023-02-03T17:14:01.504Z,62.94
2023-02-03T17:16:43.161Z,63.77
2023-02-03T17:19:33.369Z,64.08
2023-02-03T17:22:16.090Z,64.15
2023-02-03T17:25:06.445Z,63.64
2023-02-03T17:27:48.103Z,64.40
2023-02-03T17:30:44.130Z,64.96
2023-02-03T17:33:33.318Z,64.96
2023-02-03T17:36:19.129Z,64.05
2023-02-03T17:54:26.483Z,65.94
2023-02-03T17:57:17.836Z,65.27
2023-02-03T18:00:02.957Z,64.74
2023-02-03T18:02:58.481Z,65.46
2023-02-03T18:05:40.986Z,65.27
2023-02-03T18:08:30.411Z,64.34
2023-02-03T18:11:13.073Z,65.83
2023-02-03T18:14:02.318Z,65.57
2023-02-03T18:16:45.095Z,65.96
2023-02-03T18:19:33.353Z,65.92
2023-02-03T18:22:16.008Z,65.10
2023-02-03T18:25:05.454Z,65.79
2023-02-03T18:27:48.079Z,65.64
2023-02-03T18:30:44.949Z,65.15
2023-02-03T18:33:33.955Z,65.11
2023-02-03T18:36:17.894Z,65.26
2023-02-03T18:39:06.032Z,65.83
2023-02-03T18:41:48.397Z,66.39
2023-02-03T18:44:37.012Z,66.39
2023-02-03T18:47:21.292Z,66.17
2023-02-03T18:50:10.054Z,66.81
2023-02-03T18:52:53.607Z,66.81
2023-02-03T18:55:43.504Z,66.94
2023-02-03T18:58:25.414Z,67.57
2023-02-03T19:01:14.022Z,67.18
2023-02-03T19:03:56.289Z,67.96
2023-02-03T19:06:45.062Z,67.69
2023-02-03T19:09:28.440Z,67.84
2023-02-03T19:12:16.949Z,68.50
2023-02-03T19:14:59.411Z,68.37
2023-02-03T19:17:48.088Z,68.35
2023-02-03T19:20:30.706Z,68.31
2023-02-03T19:23:22.032Z,68.15
2023-02-03T19:26:05.300Z,68.26
2023-02-03T19:28:54.076Z,68.85
2023-02-03T19:31:49.056Z,68.45
2023-02-03T19:34:38.032Z,69.16
2023-02-03T19:37:20.302Z,69.44
2023-02-03T19:40:08.996Z,69.56
2023-02-03T19:42:51.365Z,69.28
2023-02-03T19:45:40.077Z,69.29
2023-02-03T19:48:22.520Z,69.41
2023-02-03T19:51:11.004Z,69.04
2023-02-03T19:53:53.766Z,69.24
2023-02-03T19:56:43.023Z,69.28
2023-02-03T19:59:25.442Z,69.13
2023-02-03T20:02:14.750Z,69.15
2023-02-03T20:04:57.440Z,69.07
2023-02-03T20:07:45.953Z,69.28
2023-02-03T20:10:29.069Z,69.28
2023-02-03T20:13:19.273Z,69.16
2023-02-03T20:16:01.435Z,68.64
2023-02-03T20:18:50.002Z,69.34
2023-02-03T20:21:32.330Z,69.22
2023-02-03T20:24:21.978Z,69.77
2023-02-03T20:27:04.360Z,69.73
2023-02-03T20:29:53.011Z,69.91
2023-02-03T20:32:42.330Z,69.69
2023-02-03T20:35:26.562Z,70.30
2023-02-03T20:38:14.921Z,69.87
2023-02-03T20:41:05.061Z,70.20
2023-02-03T20:43:54.470Z,70.67
2023-02-03T20:46:36.094Z,70.00
2023-02-03T20:49:26.743Z,70.37
2023-02-03T20:52:24.990Z,70.35
2023-02-03T20:55:15.205Z,70.94
2023-02-03T20:58:05.012Z,70.80
2023-02-03T21:00:58.258Z,71.01
2023-02-03T21:03:59.047Z,71.73
2023-02-03T21:06:47.962Z,71.74
2023-02-03T21:09:31.369Z,72.38
2023-02-03T21:12:21.048Z,71.88
2023-02-03T21:15:03.376Z,71.70
2023-02-03T21:17:51.998Z,72.65
2023-02-03T21:20:37.334Z,72.41
2023-02-03T21:23:25.970Z,73.19
2023-02-03T21:26:08.280Z,73.08
2023-02-03T21:29:00.570Z,73.34
2023-02-03T21:31:55.921Z,72.71
2023-02-03T21:34:44.992Z,73.60
2023-02-03T21:37:54.948Z,73.13
2023-02-03T21:40:44.011Z,73.15
2023-02-03T21:43:26.484Z,73.53
2023-02-03T21:46:39.948Z,73.58
2023-02-03T21:49:23.436Z,73.36
2023-02-03T21:52:12.019Z,73.68
2023-02-03T21:54:54.819Z,73.73
2023-02-03T21:57:44.137Z,73.44
2023-02-03T22:00:49.551Z,73.31
2023-02-03T22:03:51.035Z,73.35
2023-02-03T22:06:50.234Z,73.38
2023-02-03T22:09:40.030Z,73.17
2023-02-03T22:12:22.311Z,73.29
2023-02-03T22:15:10.981Z,73.37
2023-02-03T22:17:53.338Z,73.63
2023-02-03T22:20:42.089Z,73.93
2023-02-03T22:23:24.272Z,74.11
2023-02-03T22:26:13.062Z,74.25
2023-02-03T22:28:55.318Z,73.78
2023-02-03T22:31:51.155Z,74.14
2023-02-03T22:34:39.286Z,73.91
2023-02-03T22:37:20.937Z,73.66
2023-02-03T22:40:11.208Z,73.72
2023-02-03T22:42:54.031Z,73.55
2023-02-03T22:45:42.336Z,73.97
2023-02-03T22:48:25.075Z,73.68
2023-02-03T22:51:14.228Z,73.71
2023-02-03T22:53:57.068Z,73.82
2023-02-03T22:56:45.267Z,73.86
2023-02-03T22:59:27.017Z,73.54
2023-02-03T23:02:09.225Z,73.68
2023-02-03T23:05:00.990Z,73.04
2023-02-03T23:07:50.205Z,72.67
2023-02-03T23:10:37.986Z,73.12
2023-02-03T23:13:26.376Z,72.88
2023-02-03T23:16:08.139Z,72.58
2023-02-03T23:18:56.213Z,72.59
2023-02-03T23:21:38.940Z,72.46
2023-02-03T23:24:27.246Z,72.57
2023-02-03T23:27:10.021Z,72.68
2023-02-03T23:29:58.305Z,73.03
2023-02-03T23:32:46.937Z,73.22
2023-02-03T23:35:48.963Z,73.17
2023-02-03T23:38:37.970Z,72.57
2023-02-03T23:41:20.285Z,72.98
2023-02-03T23:44:08.980Z,72.71
2023-02-03T23:46:58.005Z,72.39
2023-02-03T23:49:46.886Z,72.42
2023-02-03T23:52:43.016Z,73.58
2023-02-03T23:55:25.751Z,73.19
2023-02-03T23:58:14.917Z,73.03
